Weather at Thessaloniki Macedonia International Airport

Public forecast

Using degrees Celsius for public forecast. Weather courtesy of forecast.io.

Current aviation weather report (METAR) for Thessaloniki Macedonia International Airport

2024/05/26 18:50 (retrieved 10 minutes ago)

LGTS 261850Z VRB01KT 9999 FEW025 20/12 Q1016 NOSIG

Aviation forecast (TAF) for Thessaloniki Macedonia International Airport

2024/05/26 18:16 (retrieved 44 minutes ago)

TAF LGTS 261700Z 2618/2718 VRB03KT 9999 FEW030 BECMG 2712/2714 18013KT